Time;durP1;ratioP1;P1;durP2;ratioP2;P2;SDS_P1;SDS_P2;PMS_P1;PMS_P2;Temp;Humidity;BMP_temperature;BMP_pressure;BME280_temperature;BME280_humidity;BME280_pressure;Samples;Min_cycle;Max_cycle;Signal;HPM_P1;HPM_P2
2021/09/02 04:36:40;;;;;;;13.62;7.03;;;;;;;10.39;96.98;98065.70;1871495;76;22582;-59
2021/09/02 04:39:09;;;;;;;11.35;5.20;;;;;;;10.38;96.92;98066.80;1827922;77;20950;-59
2021/09/02 04:41:39;;;;;;;10.10;4.65;;;;;;;10.41;96.96;98067.54;1791519;80;20918;-59
2021/09/02 04:44:06;;;;;;;13.72;4.58;;;;;;;10.47;96.93;98075.78;1791312;80;20836;-61
2021/09/02 04:46:33;;;;;;;7.97;4.28;;;;;;;10.54;96.85;98070.06;1791610;80;21442;-59
2021/09/02 04:49:00;;;;;;;9.10;4.72;;;;;;;10.61;96.72;98068.64;1791479;80;20914;-59
2021/09/02 04:51:28;;;;;;;11.65;4.25;;;;;;;10.68;96.70;98074.44;1791418;80;20883;-60
2021/09/02 04:53:55;;;;;;;8.58;4.55;;;;;;;10.75;96.60;98078.09;1791566;80;21279;-60
2021/09/02 04:56:22;;;;;;;10.48;4.87;;;;;;;10.81;96.55;98081.74;1791206;80;20923;-59
2021/09/02 04:58:51;;;;;;;7.35;4.58;;;;;;;10.86;96.49;98083.02;1791388;80;20836;-59
2021/09/02 05:01:18;;;;;;;7.50;4.42;;;;;;;10.91;96.35;98074.91;1791296;80;20852;-59
2021/09/02 05:03:45;;;;;;;10.48;4.17;;;;;;;10.98;96.21;98082.05;1791353;80;20926;-60
2021/09/02 05:06:13;;;;;;;6.62;4.05;;;;;;;11.04;96.18;98081.97;1791662;80;21443;-60
2021/09/02 05:08:40;;;;;;;9.73;4.47;;;;;;;11.09;96.16;98083.24;1789763;78;20899;-60
2021/09/02 05:11:09;;;;;;;9.05;4.20;;;;;;;11.15;96.04;98082.06;1769237;80;20915;-59
2021/09/02 05:13:36;;;;;;;11.93;4.03;;;;;;;11.20;95.99;98081.99;1765688;80;21421;-60
2021/09/02 05:16:04;;;;;;;6.25;3.55;;;;;;;11.26;95.86;98080.84;1791766;80;21421;-60
2021/09/02 05:18:33;;;;;;;6.40;3.67;;;;;;;11.30;95.77;98084.52;1786494;80;21050;-59
2021/09/02 05:21:02;;;;;;;5.10;3.58;;;;;;;11.31;95.45;98094.14;1791204;80;21006;-59
2021/09/02 05:23:30;;;;;;;6.55;4.25;;;;;;;11.31;95.49;98087.44;1791285;79;21387;-60
2021/09/02 05:25:57;;;;;;;5.47;3.70;;;;;;;11.32;95.53;98089.84;1791386;80;20930;-59
2021/09/02 05:28:24;;;;;;;7.72;4.00;;;;;;;11.38;95.56;98088.66;1791363;80;21050;-60
2021/09/02 05:30:51;;;;;;;6.17;3.92;;;;;;;11.42;95.04;98088.89;1791381;80;21621;-60
2021/09/02 05:33:19;;;;;;;10.30;4.58;;;;;;;11.38;94.87;98088.66;1791176;80;20860;-60
2021/09/02 05:35:46;;;;;;;8.15;4.45;;;;;;;11.37;94.70;98093.80;1788633;80;20868;-60
2021/09/02 05:38:13;;;;;;;10.60;4.17;;;;;;;11.37;94.58;98089.77;1785988;80;20915;-58
2021/09/02 05:40:40;;;;;;;10.38;4.03;;;;;;;11.33;94.42;98083.38;1785965;80;20903;-58
2021/09/02 05:43:08;;;;;;;5.72;4.20;;;;;;;11.35;94.63;98080.42;1785957;80;21114;-59
2021/09/02 05:45:35;;;;;;;8.18;4.08;;;;;;;11.37;94.52;98082.27;1785928;80;20958;-59
2021/09/02 05:48:06;;;;;;;12.65;5.15;;;;;;;11.35;94.26;98085.79;1785417;80;21010;-59
2021/09/02 05:50:33;;;;;;;6.20;3.80;;;;;;;11.32;94.07;98090.39;1785492;80;20887;-60
2021/09/02 05:53:00;;;;;;;7.28;4.20;;;;;;;11.29;93.77;98093.11;1785667;80;20848;-60
2021/09/02 05:55:27;;;;;;;7.40;4.08;;;;;;;11.27;93.94;98094.48;1754922;80;22159;-60
2021/09/02 05:57:56;;;;;;;10.63;4.30;;;;;;;11.28;94.02;98100.11;1785324;80;20907;-60
2021/09/02 06:00:23;;;;;;;8.70;4.45;;;;;;;11.31;93.80;98098.97;1785672;80;20911;-61
2021/09/02 06:02:51;;;;;;;7.75;4.65;;;;;;;11.29;93.73;98096.33;1786029;80;20891;-61
2021/09/02 06:05:18;;;;;;;8.45;4.47;;;;;;;11.33;93.86;98098.70;1785451;80;20918;-60
2021/09/02 06:07:46;;;;;;;9.75;3.85;;;;;;;11.36;93.82;98104.80;1755404;80;21821;-59
2021/09/02 06:10:13;;;;;;;8.08;4.25;;;;;;;11.36;93.41;98112.84;1780423;80;20888;-59
2021/09/02 06:12:42;;;;;;;10.78;4.60;;;;;;;11.33;93.30;98110.77;1785487;80;20954;-61
2021/09/02 06:15:12;;;;;;;14.68;4.72;;;;;;;11.31;93.29;98116.94;1776435;80;20923;-60
2021/09/02 06:17:41;;;;;;;11.75;3.98;;;;;;;11.31;93.44;98112.38;1752315;80;21006;-60
2021/09/02 06:20:12;;;;;;;11.85;4.08;;;;;;;11.35;93.38;98123.33;1785361;80;20867;-59
2021/09/02 06:22:39;;;;;;;8.33;3.62;;;;;;;11.39;93.44;98125.14;1785858;80;20903;-62
2021/09/02 06:25:09;;;;;;;6.08;4.12;;;;;;;11.44;93.35;98122.38;1785529;80;20900;-61
2021/09/02 06:27:37;;;;;;;8.35;4.60;;;;;;;11.42;93.23;98132.58;1785372;80;20876;-59
2021/09/02 06:30:06;;;;;;;8.00;4.37;;;;;;;11.45;93.30;98134.69;1772005;78;21065;-59
2021/09/02 06:32:33;;;;;;;6.78;3.67;;;;;;;11.52;93.21;98130.28;1769312;80;21136;-61
2021/09/02 06:35:01;;;;;;;8.05;3.83;;;;;;;11.56;92.83;98140.70;1785258;79;20880;-60
2021/09/02 06:37:28;;;;;;;10.38;4.30;;;;;;;11.57;92.57;98137.72;1781305;80;21314;-61
2021/09/02 06:39:56;;;;;;;9.28;4.78;;;;;;;11.57;92.25;98151.67;1787113;79;20967;-60
2021/09/02 06:42:29;;;;;;;6.72;3.80;;;;;;;11.57;91.97;98153.01;1776266;79;21068;-60
2021/09/02 06:44:58;;;;;;;8.03;3.83;;;;;;;11.59;91.99;98164.23;1778303;79;21379;-59
2021/09/02 06:47:26;;;;;;;6.17;3.98;;;;;;;11.63;91.68;98169.30;1758894;79;21013;-60
2021/09/02 06:49:53;;;;;;;7.95;3.75;;;;;;;11.63;91.27;98165.27;1784104;80;20930;-60
2021/09/02 06:52:20;;;;;;;9.95;4.20;;;;;;;11.66;90.81;98156.61;1822634;78;21077;-60
2021/09/02 06:54:47;;;;;;;9.73;3.80;;;;;;;11.75;90.59;98157.59;1812654;78;21129;-59
2021/09/02 06:57:14;;;;;;;6.10;3.47;;;;;;;11.90;90.11;98162.70;1822107;78;21066;-61
2021/09/02 06:59:42;;;;;;;6.90;3.75;;;;;;;12.03;89.29;98157.92;1841540;78;20926;-60
2021/09/02 07:02:09;;;;;;;8.00;4.95;;;;;;;12.17;89.13;98167.34;1829781;78;21509;-60
2021/09/02 07:04:36;;;;;;;8.60;4.08;;;;;;;12.32;88.53;98161.67;1805114;77;20955;-60
2021/09/02 07:07:04;;;;;;;7.92;3.77;;;;;;;12.47;87.72;98175.38;1815937;78;20982;-60
2021/09/02 07:09:31;;;;;;;6.30;3.55;;;;;;;12.57;86.62;98167.13;1824738;77;21237;-59
2021/09/02 07:12:00;;;;;;;6.50;3.50;;;;;;;12.66;86.20;98178.22;1827124;77;21572;-61
2021/09/02 07:14:28;;;;;;;9.43;3.62;;;;;;;12.78;86.13;98188.47;1814714;77;21445;-60
2021/09/02 07:16:55;;;;;;;6.30;3.45;;;;;;;12.79;85.29;98193.54;1806386;78;20987;-60
2021/09/02 07:19:22;;;;;;;8.73;3.70;;;;;;;12.80;83.94;98199.72;1819011;78;20916;-60
2021/09/02 07:21:49;;;;;;;5.08;3.00;;;;;;;12.67;82.53;98213.97;1822952;78;21361;-59
2021/09/02 07:24:16;;;;;;;7.92;3.17;;;;;;;12.60;81.45;98214.91;1822829;78;20956;-59
2021/09/02 07:26:44;;;;;;;6.90;3.37;;;;;;;12.51;81.56;98209.95;1822755;78;20902;-58
2021/09/02 07:29:11;;;;;;;6.47;3.27;;;;;;;12.51;81.97;98204.03;1795749;78;20998;-58
2021/09/02 07:31:41;;;;;;;10.78;3.02;;;;;;;12.59;81.32;98213.30;1824534;77;20883;-60
2021/09/02 07:34:09;;;;;;;7.17;2.90;;;;;;;12.63;80.54;98209.72;1794207;78;21965;-60
2021/09/02 07:36:37;;;;;;;8.98;3.00;;;;;;;12.70;79.90;98216.03;1775616;78;20875;-59
2021/09/02 07:39:05;;;;;;;9.40;3.05;;;;;;;12.85;80.23;98210.37;1765785;81;20875;-60
2021/09/02 07:41:33;;;;;;;8.40;3.05;;;;;;;13.01;79.62;98212.45;1764819;81;21075;-59
2021/09/02 07:44:00;;;;;;;5.45;2.90;;;;;;;13.13;78.65;98217.35;1793469;77;21022;-60
2021/09/02 07:46:27;;;;;;;5.92;3.08;;;;;;;13.13;78.79;98217.35;1797805;78;22243;-61
2021/09/02 07:48:54;;;;;;;6.40;2.87;;;;;;;13.19;78.52;98216.14;1781791;80;21059;-59
2021/09/02 07:51:21;;;;;;;6.70;2.83;;;;;;;13.28;79.00;98213.01;1780748;79;21021;-60
2021/09/02 07:53:48;;;;;;;5.60;2.60;;;;;;;13.40;77.18;98222.67;1780951;79;21517;-60
2021/09/02 07:56:16;;;;;;;6.20;2.67;;;;;;;13.51;76.54;98218.67;1782246;79;21059;-60
2021/09/02 07:58:44;;;;;;;7.55;3.00;;;;;;;13.54;74.56;98217.28;1782263;79;21105;-59
2021/09/02 08:01:12;;;;;;;3.27;2.27;;;;;;;13.57;73.76;98228.22;1783414;79;21011;-59
2021/09/02 08:03:40;;;;;;;10.85;2.72;;;;;;;13.69;73.95;98227.14;1783255;79;20921;-61
2021/09/02 08:06:07;;;;;;;6.03;2.40;;;;;;;13.81;73.08;98228.48;1792651;77;20914;-60
2021/09/02 08:08:35;;;;;;;4.97;2.37;;;;;;;13.85;72.56;98228.14;1811017;79;20928;-61
2021/09/02 08:11:02;;;;;;;5.10;2.22;;;;;;;13.81;71.42;98228.48;1813046;79;21175;-60
2021/09/02 08:13:29;;;;;;;5.35;2.20;;;;;;;13.87;71.40;98221.89;1811047;77;21509;-61
2021/09/02 08:15:58;;;;;;;6.60;2.75;;;;;;;14.08;70.33;98221.11;1812240;78;20908;-60
2021/09/02 08:18:27;;;;;;;5.62;2.40;;;;;;;14.20;68.76;98215.92;1812163;78;21622;-62
2021/09/02 08:20:55;;;;;;;5.60;2.75;;;;;;;14.16;68.55;98219.55;1821307;78;21443;-72
2021/09/02 08:23:23;;;;;;;5.12;2.60;;;;;;;14.08;68.14;98219.76;1810733;78;21479;-59
2021/09/02 08:25:50;;;;;;;6.20;2.47;;;;;;;14.07;67.62;98229.47;1790806;78;20967;-60
2021/09/02 08:28:17;;;;;;;5.90;2.98;;;;;;;14.11;68.05;98219.67;1780780;80;21002;-60
2021/09/02 08:30:45;;;;;;;6.92;2.60;;;;;;;14.24;69.10;98214.77;1796164;79;21050;-60
2021/09/02 08:33:12;;;;;;;5.40;2.20;;;;;;;14.38;67.77;98215.52;1784688;79;21070;-60
2021/09/02 08:35:39;;;;;;;8.18;2.47;;;;;;;14.44;68.45;98212.92;1781134;80;21147;-60
2021/09/02 08:38:08;;;;;;;4.62;2.10;;;;;;;14.47;69.05;98223.64;1795003;77;21103;-61
2021/09/02 08:40:37;;;;;;;6.30;2.35;;;;;;;14.41;67.06;98218.95;1791080;77;21138;-60
2021/09/02 08:43:05;;;;;;;5.20;2.40;;;;;;;14.43;67.53;98210.55;1814907;78;20996;-60
2021/09/02 08:45:33;;;;;;;6.90;2.35;;;;;;;14.53;66.26;98205.67;1815714;79;21581;-60
2021/09/02 08:48:02;;;;;;;5.87;2.10;;;;;;;14.56;66.32;98200.21;1786516;79;21273;-60
2021/09/02 08:50:33;;;;;;;4.12;2.22;;;;;;;14.54;63.37;98207.27;1783328;80;20978;-63
2021/09/02 08:53:01;;;;;;;4.22;1.80;;;;;;;14.58;65.11;98202.84;1783347;80;20899;-61
2021/09/02 08:55:29;;;;;;;7.47;2.33;;;;;;;14.72;63.99;98194.67;1783102;79;20936;-61
2021/09/02 08:57:56;;;;;;;7.10;2.60;;;;;;;14.79;63.47;98191.74;1783410;80;20927;-60
2021/09/02 09:00:25;;;;;;;5.33;2.72;;;;;;;14.90;64.40;98205.75;1783537;80;21105;-71
2021/09/02 09:03:00;;;;;;;22.82;3.02;;;;;;;15.00;61.78;98207.59;1783537;79;20936;-60
2021/09/02 09:05:29;;;;;;;9.48;2.52;;;;;;;15.08;63.78;98209.53;1797394;79;20975;-59
2021/09/02 09:07:57;;;;;;;5.20;2.25;;;;;;;15.24;63.49;98205.83;1726017;82;21362;-60
2021/09/02 09:10:29;;;;;;;6.25;2.47;;;;;;;15.40;60.93;98200.78;1746186;82;20896;-60
2021/09/02 09:13:00;;;;;;;5.10;2.40;;;;;;;15.40;60.97;98203.48;1747109;80;21105;-60
2021/09/02 09:15:34;;;;;;;5.62;2.42;;;;;;;15.38;62.55;98216.50;1774279;79;20920;-64
2021/09/02 09:18:15;;;;;;;5.47;2.00;;;;;;;15.46;62.21;98208.98;1776955;80;20860;-60
2021/09/02 09:20:44;;;;;;;5.45;2.10;;;;;;;15.50;59.47;98223.43;1772298;80;21038;-61
2021/09/02 09:23:16;;;;;;;5.65;2.02;;;;;;;15.47;59.30;98220.03;1776707;80;20999;-61
2021/09/02 09:25:44;;;;;;;4.33;2.10;;;;;;;15.57;59.22;98217.00;1776705;80;21056;-60
2021/09/02 09:28:11;;;;;;;8.45;2.08;;;;;;;15.64;60.07;98220.83;1755865;80;21407;-59
2021/09/02 09:30:39;;;;;;;3.67;2.20;;;;;;;15.72;60.84;98234.09;1776737;80;21039;-59
2021/09/02 09:33:09;;;;;;;9.38;2.40;;;;;;;15.77;59.62;98230.45;1775447;80;21215;-59
2021/09/02 09:35:39;;;;;;;5.35;1.82;;;;;;;15.73;59.01;98234.35;1776657;80;21059;-60
2021/09/02 09:38:15;;;;;;;4.17;2.25;;;;;;;15.58;59.17;98240.20;1761888;79;21045;-60
2021/09/02 09:40:51;;;;;;;6.70;1.92;;;;;;;15.48;59.23;98244.55;1745999;82;20990;-58
2021/09/02 09:43:23;;;;;;;;;;;;;;;15.28;59.38;98253.23;1758235;79;21407;-60
2021/09/02 09:45:56;;;;;;;7.25;2.45;;;;;;;15.08;59.56;98244.60;1740146;82;20181;-60
2021/09/02 09:48:38;;;;;;;5.20;2.22;;;;;;;14.95;61.29;98238.78;1809230;79;20976;-62
2021/09/02 09:51:13;;;;;;;4.05;2.10;;;;;;;14.83;60.56;98243.97;1782138;79;21456;-59
2021/09/02 09:53:45;;;;;;;6.08;2.05;;;;;;;14.68;60.41;98238.97;1755054;80;21034;-61
2021/09/02 09:56:12;;;;;;;7.08;2.50;;;;;;;14.58;60.65;98243.85;1761033;80;21099;-58
2021/09/02 09:58:40;;;;;;;5.58;2.87;;;;;;;14.49;61.06;98245.13;1770588;81;20944;-60
2021/09/02 10:01:08;;;;;;;6.10;1.92;;;;;;;14.46;62.10;98249.78;1773806;81;20956;-60
2021/09/02 10:03:37;;;;;;;16.30;3.42;;;;;;;14.44;62.53;98245.84;1748460;81;21256;-59
2021/09/02 10:06:12;;;;;;;6.55;2.30;;;;;;;14.41;63.39;98247.25;1743521;82;21008;-60
2021/09/02 10:08:42;;;;;;;5.08;2.50;;;;;;;14.33;63.11;98239.89;1743544;82;20888;-60
2021/09/02 10:11:13;;;;;;;3.77;1.98;;;;;;;14.28;62.59;98242.68;1743313;82;21436;-62
2021/09/02 10:13:43;;;;;;;4.95;2.22;;;;;;;14.21;62.75;98249.05;1743611;82;20884;-60
2021/09/02 10:16:10;;;;;;;4.80;2.20;;;;;;;14.15;63.97;98255.14;1759345;80;21705;-60
2021/09/02 10:18:45;;;;;;;5.83;2.40;;;;;;;14.11;63.53;98259.52;1750846;80;21003;-60
2021/09/02 10:21:13;;;;;;;4.25;2.05;;;;;;;14.07;63.81;98259.09;1808990;79;20887;-62
2021/09/02 10:29:34;;;;;;;7.65;2.62;;;;;;;13.91;64.45;98251.14;1808761;79;21090;-61
2021/09/02 10:32:24;;;;;;;3.45;2.00;;;;;;;13.87;64.07;98259.59;1809192;79;21329;-61
2021/09/02 10:34:54;;;;;;;4.72;2.47;;;;;;;13.78;64.42;98259.50;1807441;79;20879;-58
2021/09/02 10:37:44;;;;;;;5.17;2.30;;;;;;;13.71;64.50;98261.27;1808114;79;21063;-59
2021/09/02 10:40:23;;;;;;;3.98;2.22;;;;;;;13.68;65.56;98256.48;1817011;79;20930;-58
2021/09/02 10:42:52;;;;;;;5.55;2.30;;;;;;;13.71;65.68;98259.92;1817647;79;21357;-60
2021/09/02 10:45:31;;;;;;;4.92;2.20;;;;;;;13.72;65.65;98262.08;1817584;79;20965;-59
2021/09/02 10:48:07;;;;;;;5.22;2.30;;;;;;;13.73;65.01;98274.41;1817581;79;20881;-59
2021/09/02 10:50:39;;;;;;;5.10;2.10;;;;;;;13.63;64.25;98266.05;1817554;78;21436;-58
2021/09/02 10:53:18;;;;;;;5.92;2.12;;;;;;;13.56;64.86;98268.90;1822506;77;21636;-58
2021/09/02 10:55:54;;;;;;;5.25;2.35;;;;;;;13.53;64.96;98275.68;1861260;77;20988;-58
2021/09/02 10:58:45;;;;;;;7.37;2.17;;;;;;;13.48;63.71;98279.82;1861426;77;20931;-58
2021/09/02 11:01:29;;;;;;;4.80;2.02;;;;;;;13.45;64.11;98278.27;1861367;77;20923;-59
2021/09/02 11:03:56;;;;;;;5.15;2.25;;;;;;;13.44;64.78;98290.14;1861532;77;20954;-59
2021/09/02 11:06:25;;;;;;;4.75;2.25;;;;;;;13.43;64.00;98292.03;1861403;77;20923;-59
2021/09/02 11:08:52;;;;;;;4.25;2.02;;;;;;;13.37;63.62;98293.25;1850708;77;21726;-58
2021/09/02 11:11:22;;;;;;;6.70;2.25;;;;;;;13.28;64.57;98300.43;1817672;77;21006;-60
2021/09/02 11:13:53;;;;;;;4.83;1.98;;;;;;;13.27;65.32;98315.51;1818876;78;21044;-58
2021/09/02 11:16:23;;;;;;;7.08;2.10;;;;;;;13.28;66.38;98305.81;1820075;77;21022;-59
2021/09/02 11:18:54;;;;;;;3.08;1.80;;;;;;;13.25;66.87;98317.16;1817591;77;21038;-57
2021/09/02 11:21:24;;;;;;;5.05;2.10;;;;;;;13.19;67.32;98314.31;1788014;79;21189;-57
2021/09/02 11:23:59;;;;;;;6.70;2.12;;;;;;;13.12;68.12;98317.94;1817443;78;20932;-58
2021/09/02 11:26:43;;;;;;;4.80;2.20;;;;;;;13.15;68.76;98317.35;1820361;77;20967;-60
2021/09/02 11:29:24;;;;;;;6.33;2.17;;;;;;;13.16;68.77;98312.23;1815276;78;20990;-60
2021/09/02 11:32:04;;;;;;;3.12;2.02;;;;;;;13.17;69.42;98313.81;1819432;78;21095;-58
2021/09/02 11:34:31;;;;;;;4.97;2.30;;;;;;;13.14;69.58;98322.50;1816280;78;21069;-58
2021/09/02 11:36:58;;;;;;;4.47;2.15;;;;;;;13.08;70.03;98311.58;1802119;77;21213;-58
2021/09/02 11:39:31;;;;;;;5.50;2.45;;;;;;;13.01;70.45;98339.37;1767496;80;21592;-58
2021/09/02 11:42:08;;;;;;;3.25;2.20;;;;;;;12.92;71.14;98330.41;1759592;80;21046;-60
2021/09/02 11:44:37;;;;;;;5.20;2.75;;;;;;;12.90;72.21;98337.44;1744372;82;21125;-60
2021/09/02 11:47:15;;;;;;;4.00;2.20;;;;;;;12.89;73.35;98329.64;1733048;80;20931;-59
2021/09/02 11:50:00;;;;;;;4.53;2.47;;;;;;;12.88;74.05;98334.79;1762359;80;20986;-59
2021/09/02 11:52:47;;;;;;;;;;;;;;;12.90;75.18;98344.69;1779521;80;21475;-58
2021/09/02 11:55:32;;;;;;;5.05;2.42;;;;;;;12.90;76.11;98336.09;1748109;81;20421;-62
2021/09/02 11:58:05;;;;;;;4.30;2.58;;;;;;;12.88;76.53;98344.20;1764977;80;21392;-59
2021/09/02 12:00:34;;;;;;;7.17;2.40;;;;;;;12.81;77.03;98342.44;1756170;80;21033;-59
2021/09/02 12:03:03;;;;;;;3.90;2.10;;;;;;;12.73;77.65;98336.39;1750763;80;21343;-60
2021/09/02 12:05:38;;;;;;;5.00;2.27;;;;;;;12.69;77.80;98336.73;1741432;82;21099;-58
2021/09/02 12:08:09;;;;;;;4.17;2.20;;;;;;;12.62;77.94;98345.73;1741307;82;20983;-58
2021/09/02 12:10:42;;;;;;;5.67;2.30;;;;;;;12.61;78.44;98350.30;1744777;80;21093;-58
2021/09/02 12:13:35;;;;;;;4.28;2.30;;;;;;;12.59;78.04;98344.96;1762227;81;21031;-60
2021/09/02 12:16:11;;;;;;;3.37;2.20;;;;;;;12.60;78.49;98347.91;1774415;80;20971;-59
2021/09/02 12:18:42;;;;;;;5.97;2.45;;;;;;;12.62;78.49;98335.78;1774150;81;20888;-60
2021/09/02 12:21:14;;;;;;;6.60;2.20;;;;;;;12.68;78.95;98347.22;1774082;81;20932;-60
2021/09/02 12:23:53;;;;;;;3.30;2.27;;;;;;;12.70;78.50;98342.34;1773176;81;21558;-59
2021/09/02 12:26:21;;;;;;;4.97;2.60;;;;;;;12.69;77.69;98349.64;1764022;80;21969;-58
2021/09/02 12:28:53;;;;;;;12.75;3.20;;;;;;;12.69;77.54;98335.39;1773725;81;21396;-60
2021/09/02 12:31:26;;;;;;;7.35;2.52;;;;;;;12.75;77.34;98334.20;1773336;81;20896;-58
2021/09/02 12:34:07;;;;;;;6.28;2.40;;;;;;;12.84;76.78;98335.11;1774020;81;20936;-61
2021/09/02 12:36:40;;;;;;;7.08;2.08;;;;;;;12.93;76.10;98329.33;1774245;81;21519;-60
2021/09/02 12:39:23;;;;;;;6.17;2.55;;;;;;;13.04;76.00;98328.03;1773843;81;21108;-59
2021/09/02 12:41:55;;;;;;;5.47;2.55;;;;;;;13.27;75.72;98324.37;1774379;81;21768;-60
2021/09/02 12:44:26;;;;;;;9.38;3.00;;;;;;;13.50;75.06;98328.75;1743940;81;21487;-59
2021/09/02 12:47:16;;;;;;;3.62;2.30;;;;;;;13.64;74.95;98324.14;1774029;81;20944;-58
2021/09/02 12:49:46;;;;;;;12.60;2.58;;;;;;;13.79;72.86;98324.91;1774153;81;21525;-58
2021/09/02 12:52:22;;;;;;;5.55;2.33;;;;;;;13.79;73.10;98315.49;1771071;80;21080;-59
2021/09/02 12:55:25;;;;;;;5.60;2.45;;;;;;;13.82;73.37;98316.24;1743419;82;20924;-57
2021/09/02 12:57:56;;;;;;;5.70;2.52;;;;;;;13.82;72.83;98310.86;1761444;81;20976;-57
2021/09/02 13:00:33;;;;;;;6.03;2.17;;;;;;;13.79;72.73;98318.19;1771711;81;21042;-58
2021/09/02 13:03:05;;;;;;;4.33;2.62;;;;;;;13.73;72.85;98317.48;1743684;82;20857;-58
2021/09/02 13:05:35;;;;;;;6.97;3.02;;;;;;;13.73;73.00;98311.33;1748016;81;21511;-58
2021/09/02 13:08:04;;;;;;;6.00;2.70;;;;;;;13.78;72.67;98319.30;1761164;81;20975;-63
2021/09/02 13:10:39;;;;;;;7.12;2.45;;;;;;;13.79;72.90;98318.98;1774157;81;20924;-58
2021/09/02 13:13:07;;;;;;;4.90;2.50;;;;;;;13.82;72.87;98312.20;1774780;81;21431;-60
2021/09/02 13:15:36;;;;;;;6.12;2.65;;;;;;;13.85;72.98;98314.30;1774246;81;20977;-57
2021/09/02 13:18:03;;;;;;;4.28;2.30;;;;;;;13.90;72.77;98323.04;1774524;81;21115;-57
2021/09/02 13:20:30;;;;;;;4.65;2.40;;;;;;;13.96;73.13;98321.04;1774129;81;20905;-60
2021/09/02 13:22:57;;;;;;;4.45;2.30;;;;;;;14.02;73.20;98323.85;1774126;81;21015;-60
2021/09/02 13:25:24;;;;;;;5.97;2.42;;;;;;;14.08;72.19;98321.30;1755956;81;20975;-60
2021/09/02 13:27:51;;;;;;;4.90;2.58;;;;;;;14.06;71.47;98316.78;1743728;82;20900;-60
